Canada, Kentucky
Current Conditions -  °F | °C
As of 5:35 PM on Sunday 21 Dec 2014 (Local Time) from KPBX Reporting Station
Clear Clear  
Wind Chill: 35°   Ceiling: Unl
Heat Index: 40°   Visibility: 10mi
Dew Point: 27°   Wind: 7mph
Humidity: 61%   Direction: 10°N
Pressure: 30.12"   Gusts: NA
Location:  37.59°N, 82.32°W
Report Text: KPBX 212235Z AUTO 01006KT 10SM CLR 04/M03 A3012 RMK AO2 T00421027
Loading
Personal Weather Stations






























Interactive Weather Map New forecast layout! Learn more

10-Day Weather Forecast

Advertisements
Track Severe Weather on mobile